createdAt,value
2023-10-21T00:02:19.402Z,1.30
2023-10-21T00:04:47.394Z,1.38
2023-10-21T00:07:15.444Z,1.73
2023-10-21T00:09:43.446Z,1.30
2023-10-21T00:12:13.379Z,1.30
2023-10-21T00:14:45.108Z,1.52
2023-10-21T00:17:13.114Z,1.83
2023-10-21T00:19:41.088Z,1.40
2023-10-21T00:22:09.085Z,2.08
2023-10-21T00:24:37.065Z,1.30
2023-10-21T00:27:05.090Z,1.30
2023-10-21T00:29:33.115Z,1.45
2023-10-21T00:32:02.905Z,1.90
2023-10-21T00:34:30.882Z,2.08
2023-10-21T00:36:58.885Z,1.38
2023-10-21T00:39:26.869Z,1.67
2023-10-21T00:41:54.856Z,1.48
2023-10-21T00:44:22.833Z,0.98
2023-10-21T00:46:50.826Z,1.60
2023-10-21T00:49:20.237Z,1.25
2023-10-21T00:51:49.824Z,1.08
2023-10-21T00:54:18.892Z,1.90
2023-10-21T00:56:46.954Z,1.30
2023-10-21T00:59:15.967Z,1.45
2023-10-21T01:01:45.200Z,1.23
2023-10-21T01:04:14.819Z,1.75
2023-10-21T01:06:45.222Z,1.40
2023-10-21T01:09:15.536Z,1.17
2023-10-21T01:11:43.715Z,1.48
2023-10-21T01:14:11.907Z,1.70
2023-10-21T01:16:39.935Z,1.42
2023-10-21T01:19:08.287Z,2.25
2023-10-21T01:21:36.427Z,1.73
2023-10-21T01:24:06.472Z,2.25
2023-10-21T01:26:35.051Z,1.40
2023-10-21T01:29:03.029Z,1.20
2023-10-21T01:31:33.883Z,1.10
2023-10-21T01:34:02.075Z,1.40
2023-10-21T01:36:30.136Z,1.67
2023-10-21T01:38:58.179Z,1.55
2023-10-21T01:41:27.570Z,1.58
2023-10-21T01:43:55.508Z,1.85
2023-10-21T01:46:23.478Z,1.20
2023-10-21T01:48:51.993Z,1.20
2023-10-21T01:51:20.278Z,1.60
2023-10-21T01:53:48.305Z,1.30
2023-10-21T01:56:16.314Z,1.17
2023-10-21T01:58:45.718Z,1.25
2023-10-21T02:01:13.716Z,1.10
2023-10-21T02:03:43.075Z,1.35
2023-10-21T02:06:11.336Z,2.03
2023-10-21T02:08:39.408Z,1.45
2023-10-21T02:11:07.767Z,1.95
2023-10-21T02:13:35.732Z,2.65
2023-10-21T02:16:11.215Z,1.85
2023-10-21T02:18:39.330Z,1.92
2023-10-21T02:21:07.926Z,1.30
2023-10-21T02:23:36.193Z,1.98
2023-10-21T02:26:05.703Z,1.00
2023-10-21T02:28:33.650Z,1.83
2023-10-21T02:31:05.580Z,1.63
2023-10-21T02:33:33.709Z,1.30
2023-10-21T02:36:01.743Z,1.27
2023-10-21T02:38:30.379Z,1.60
2023-10-21T02:40:58.507Z,1.40
2023-10-21T02:43:26.460Z,1.58
2023-10-21T02:45:54.432Z,1.40
2023-10-21T02:48:23.925Z,1.98
2023-10-21T02:50:51.949Z,0.80
2023-10-21T02:53:19.961Z,1.17
2023-10-21T02:55:47.913Z,1.08
2023-10-21T02:58:15.886Z,1.10
2023-10-21T03:00:43.896Z,1.02
2023-10-21T03:03:11.972Z,1.52
2023-10-21T03:05:43.819Z,1.65
2023-10-21T03:08:11.865Z,1.75
2023-10-21T03:10:39.882Z,1.38
2023-10-21T03:13:07.847Z,1.10
2023-10-21T03:15:36.046Z,1.38
2023-10-21T03:18:04.345Z,1.13
2023-10-21T03:20:34.181Z,1.20
2023-10-21T03:23:04.680Z,1.38
2023-10-21T03:25:34.502Z,1.65
2023-10-21T03:28:02.937Z,1.10
2023-10-21T03:30:31.285Z,1.75
2023-10-21T03:32:59.378Z,1.65
2023-10-21T03:35:27.495Z,1.80
2023-10-21T03:37:55.463Z,1.98
2023-10-21T03:40:24.805Z,1.67
2023-10-21T03:42:52.878Z,1.50
2023-10-21T03:45:21.276Z,2.35
2023-10-21T03:47:49.947Z,1.98
2023-10-21T03:50:17.962Z,1.63
2023-10-21T03:52:45.964Z,1.70
2023-10-21T03:55:13.957Z,1.88
2023-10-21T03:57:43.331Z,1.45
2023-10-21T04:00:13.402Z,2.10
2023-10-21T04:02:41.534Z,1.75
2023-10-21T04:05:10.030Z,1.90
2023-10-21T04:07:38.066Z,1.42
2023-10-21T04:10:06.592Z,1.92
2023-10-21T04:12:34.564Z,2.22
2023-10-21T04:15:04.135Z,1.60
2023-10-21T04:17:32.208Z,1.50
2023-10-21T04:20:00.330Z,1.40
2023-10-21T04:22:28.456Z,2.00
2023-10-21T04:24:56.405Z,1.42
2023-10-21T04:27:24.479Z,1.60
2023-10-21T04:29:52.506Z,1.70
2023-10-21T04:32:21.872Z,1.65
2023-10-21T04:34:49.874Z,1.98
2023-10-21T04:37:17.898Z,1.55
2023-10-21T04:39:45.825Z,1.48
2023-10-21T04:42:14.512Z,1.50
2023-10-21T04:44:44.294Z,1.40
2023-10-21T04:47:12.503Z,1.85
2023-10-21T04:49:44.120Z,2.55
2023-10-21T04:52:13.165Z,2.25
2023-10-21T04:54:41.158Z,1.95
2023-10-21T04:57:09.252Z,1.55
2023-10-21T04:59:37.579Z,1.90
2023-10-21T05:02:05.717Z,1.67
2023-10-21T05:04:34.185Z,1.95
2023-10-21T05:07:04.716Z,1.83
2023-10-21T05:09:33.478Z,1.48
2023-10-21T05:12:02.249Z,1.85
2023-10-21T05:14:30.347Z,1.20
2023-10-21T05:16:58.389Z,1.95
2023-10-21T05:19:26.418Z,1.10
2023-10-21T05:21:54.411Z,1.63
2023-10-21T05:24:23.869Z,1.50
2023-10-21T05:26:53.173Z,1.30
2023-10-21T05:29:21.173Z,1.10
2023-10-21T05:31:50.546Z,1.63
2023-10-21T05:34:20.673Z,1.60
2023-10-21T05:36:48.824Z,2.03
2023-10-21T05:39:17.072Z,2.88
2023-10-21T05:41:46.446Z,3.13
2023-10-21T05:44:14.429Z,1.52
2023-10-21T05:46:42.483Z,2.17
2023-10-21T05:49:10.594Z,1.15
2023-10-21T05:51:38.562Z,1.00
2023-10-21T05:54:06.850Z,1.27
2023-10-21T05:56:34.957Z,1.10
2023-10-21T05:59:05.421Z,1.55
2023-10-21T06:01:33.547Z,1.48
2023-10-21T06:04:01.614Z,1.75
2023-10-21T06:06:29.754Z,1.52
2023-10-21T06:08:57.820Z,1.38
2023-10-21T06:11:25.862Z,0.98
2023-10-21T06:13:53.832Z,2.10
2023-10-21T06:16:23.346Z,1.88
2023-10-21T06:18:51.312Z,2.60
2023-10-21T06:21:19.698Z,2.17
2023-10-21T06:23:47.710Z,3.63
2023-10-21T06:26:16.080Z,5.55
2023-10-21T06:28:44.025Z,4.85
2023-10-21T06:31:12.342Z,9.63
2023-10-21T06:33:41.815Z,8.18
2023-10-21T06:36:10.219Z,5.78
2023-10-21T06:38:38.481Z,4.53
2023-10-21T06:41:14.249Z,5.63
2023-10-21T06:43:43.340Z,5.93
2023-10-21T06:46:11.771Z,5.97
2023-10-21T06:48:41.186Z,5.60
2023-10-21T06:51:09.268Z,5.75
2023-10-21T06:53:37.402Z,5.95
2023-10-21T06:56:12.024Z,7.20
2023-10-21T06:58:40.911Z,10.25
2023-10-21T07:01:09.084Z,6.57
2023-10-21T07:03:38.071Z,5.72
2023-10-21T07:06:07.809Z,2.38
2023-10-21T07:08:37.012Z,1.20
2023-10-21T07:11:05.287Z,1.60
2023-10-21T07:13:33.666Z,1.20
2023-10-21T07:16:07.853Z,1.15
2023-10-21T07:18:35.879Z,1.40
2023-10-21T07:21:03.926Z,1.20
2023-10-21T07:23:33.464Z,1.02
2023-10-21T07:26:01.484Z,1.45
2023-10-21T07:28:30.303Z,1.08
2023-10-21T07:30:58.513Z,0.80
2023-10-21T07:33:26.571Z,1.30
2023-10-21T07:35:54.919Z,1.63
2023-10-21T07:38:23.479Z,1.45
2023-10-21T07:40:52.839Z,1.35
2023-10-21T07:43:21.291Z,1.10
2023-10-21T07:45:49.991Z,1.35
2023-10-21T07:48:18.208Z,1.23
2023-10-21T07:50:46.297Z,0.95
2023-10-21T07:53:14.253Z,1.38
2023-10-21T07:55:42.245Z,1.00
2023-10-21T07:58:11.615Z,1.25
2023-10-21T08:00:41.119Z,1.52
2023-10-21T08:03:09.148Z,1.23
2023-10-21T08:05:38.483Z,1.83
2023-10-21T08:08:06.874Z,1.35
2023-10-21T08:10:35.176Z,1.15
2023-10-21T08:13:03.235Z,1.23
2023-10-21T08:15:32.940Z,1.58
2023-10-21T08:18:01.107Z,1.85
2023-10-21T08:20:29.139Z,1.10
2023-10-21T08:22:56.119Z,2.03
2023-10-21T08:25:24.153Z,1.35
2023-10-21T08:27:52.156Z,1.40
2023-10-21T08:30:21.496Z,1.60
2023-10-21T08:32:52.775Z,1.50
2023-10-21T08:35:20.924Z,1.20
2023-10-21T08:37:48.914Z,1.50
2023-10-21T08:40:17.691Z,0.93
2023-10-21T08:43:00.155Z,1.75
2023-10-21T08:45:32.000Z,1.20
2023-10-21T08:48:03.310Z,1.50
2023-10-21T08:50:36.927Z,1.65
2023-10-21T08:53:07.509Z,1.30
2023-10-21T08:55:37.848Z,1.08
2023-10-21T08:58:07.756Z,1.50
2023-10-21T09:00:36.082Z,1.25
2023-10-21T09:03:06.404Z,1.85
2023-10-21T09:05:35.848Z,1.27
2023-10-21T09:08:05.345Z,1.42
2023-10-21T09:10:36.357Z,1.75
2023-10-21T09:13:15.493Z,1.27
2023-10-21T09:15:46.155Z,1.80
2023-10-21T09:18:16.311Z,1.88
2023-10-21T09:20:50.363Z,1.63
2023-10-21T09:23:18.855Z,2.22
2023-10-21T09:25:50.925Z,1.80
2023-10-21T09:28:23.090Z,2.13
2023-10-21T09:30:59.160Z,2.55
2023-10-21T09:33:28.681Z,1.95
2023-10-21T09:36:19.005Z,1.90
2023-10-21T09:38:52.626Z,2.53
2023-10-21T09:41:22.340Z,1.95
2023-10-21T09:43:52.528Z,1.85
2023-10-21T09:46:26.601Z,1.80
2023-10-21T09:49:01.646Z,1.92
2023-10-21T09:51:35.431Z,2.15
2023-10-21T09:54:12.833Z,2.20
2023-10-21T09:56:42.504Z,1.92
2023-10-21T09:59:11.854Z,1.52
2023-10-21T10:01:41.218Z,1.50
2023-10-21T10:04:12.389Z,1.90
2023-10-21T10:06:43.853Z,1.88
2023-10-21T10:09:14.264Z,2.00
2023-10-21T10:11:43.509Z,2.08
2023-10-21T10:14:12.525Z,2.05
2023-10-21T10:16:46.126Z,1.40
2023-10-21T10:19:17.789Z,2.00
2023-10-21T10:21:53.179Z,1.93
2023-10-21T10:24:23.757Z,1.85
2023-10-21T10:26:54.622Z,2.03
2023-10-21T10:29:27.267Z,2.20
2023-10-21T10:32:17.922Z,2.05
2023-10-21T10:34:54.428Z,2.33
2023-10-21T10:37:36.454Z,2.30
2023-10-21T10:40:19.522Z,2.33
2023-10-21T10:45:15.474Z,2.50
2023-10-21T10:47:44.641Z,2.85
2023-10-21T10:50:24.492Z,2.30
2023-10-21T10:52:52.448Z,2.90
2023-10-21T10:55:20.449Z,2.60
2023-10-21T10:57:49.226Z,2.58
2023-10-21T11:00:21.773Z,2.25
2023-10-21T11:02:50.695Z,2.20
2023-10-21T11:05:22.330Z,2.28
2023-10-21T11:07:51.705Z,2.67
2023-10-21T11:10:25.882Z,2.00
2023-10-21T11:12:54.308Z,1.88
2023-10-21T11:15:23.214Z,2.00
2023-10-21T11:17:52.776Z,1.60
2023-10-21T11:20:22.296Z,1.60
2023-10-21T11:22:50.247Z,1.77
2023-10-21T11:25:20.328Z,2.00
2023-10-21T11:27:49.429Z,1.75
2023-10-21T11:30:17.671Z,1.73
2023-10-21T11:32:47.082Z,2.42
2023-10-21T11:35:16.170Z,2.13
2023-10-21T11:37:45.713Z,2.00
2023-10-21T11:40:17.090Z,2.03
2023-10-21T11:42:59.784Z,2.00
2023-10-21T11:45:30.392Z,1.48
2023-10-21T11:47:58.671Z,2.55
2023-10-21T11:50:26.949Z,1.73
2023-10-21T11:52:56.288Z,1.55
2023-10-21T11:55:40.035Z,1.75
2023-10-21T11:58:25.549Z,1.60
2023-10-21T12:01:10.890Z,1.77
2023-10-21T12:04:07.898Z,1.40
2023-10-21T12:07:01.544Z,1.60
2023-10-21T12:09:56.776Z,2.22
2023-10-21T12:12:42.380Z,1.58
2023-10-21T12:15:36.628Z,1.70
2023-10-21T12:18:24.737Z,1.58
2023-10-21T12:21:06.735Z,1.52
2023-10-21T12:24:00.055Z,1.38
2023-10-21T12:26:53.197Z,1.60
2023-10-21T12:29:38.654Z,1.17
2023-10-21T12:32:23.746Z,1.30
2023-10-21T12:35:08.498Z,1.65
2023-10-21T12:38:14.376Z,2.10
2023-10-21T12:40:56.880Z,2.10
2023-10-21T12:43:26.050Z,1.88
2023-10-21T12:45:55.662Z,1.48
2023-10-21T12:48:23.897Z,1.58
2023-10-21T12:50:51.983Z,1.42
2023-10-21T12:53:20.312Z,1.63
2023-10-21T12:55:48.669Z,1.85
2023-10-21T12:58:16.663Z,1.40
2023-10-21T13:00:46.164Z,2.10
2023-10-21T13:03:14.817Z,1.80
2023-10-21T13:05:44.892Z,1.63
2023-10-21T13:08:13.097Z,1.83
2023-10-21T13:10:41.375Z,1.40
2023-10-21T13:13:10.335Z,1.48
2023-10-21T13:15:38.896Z,1.40
2023-10-21T13:18:08.865Z,1.42
2023-10-21T13:20:37.255Z,1.83
2023-10-21T13:23:05.717Z,1.50
2023-10-21T13:25:35.035Z,1.40
2023-10-21T13:28:06.623Z,2.38
2023-10-21T13:30:35.183Z,1.45
2023-10-21T13:33:05.339Z,1.50
2023-10-21T13:35:35.640Z,1.10
2023-10-21T13:38:03.991Z,1.30
2023-10-21T13:40:32.288Z,1.92
2023-10-21T13:43:00.417Z,1.50
2023-10-21T13:45:30.086Z,1.15
2023-10-21T13:48:00.389Z,1.45
2023-10-21T13:50:29.830Z,1.27
2023-10-21T13:53:05.943Z,1.15
2023-10-21T13:55:34.147Z,1.40
2023-10-21T13:58:02.131Z,1.58
2023-10-21T14:00:39.031Z,1.30
2023-10-21T14:03:11.598Z,1.40
2023-10-21T14:05:40.361Z,1.00
2023-10-21T14:08:12.372Z,1.38
2023-10-21T14:10:43.960Z,1.00
2023-10-21T14:13:16.803Z,1.57
2023-10-21T14:15:46.640Z,1.55
2023-10-21T14:18:14.787Z,1.17
2023-10-21T14:20:43.330Z,1.30
2023-10-21T14:23:16.128Z,1.63
2023-10-21T14:25:46.497Z,1.50
2023-10-21T14:28:15.688Z,1.30
2023-10-21T14:30:47.806Z,1.13
2023-10-21T14:33:18.219Z,1.48
2023-10-21T14:35:47.759Z,1.50
2023-10-21T14:38:18.307Z,1.45
2023-10-21T14:40:47.077Z,1.45
2023-10-21T14:43:16.293Z,1.45
2023-10-21T14:45:45.721Z,1.70
2023-10-21T14:48:14.582Z,1.50
2023-10-21T14:50:43.679Z,1.52
2023-10-21T14:53:12.362Z,1.50
2023-10-21T14:55:52.339Z,1.85
2023-10-21T14:58:23.975Z,2.13
2023-10-21T15:00:52.822Z,1.73
2023-10-21T15:03:22.260Z,1.45
2023-10-21T15:05:51.151Z,1.88
2023-10-21T15:08:23.774Z,1.70
2023-10-21T15:10:53.740Z,1.88
2023-10-21T15:13:24.314Z,1.65
2023-10-21T15:16:00.619Z,2.03
2023-10-21T15:18:28.908Z,1.88
2023-10-21T15:21:04.685Z,1.80
2023-10-21T15:23:35.396Z,1.95
2023-10-21T15:26:05.092Z,2.92
2023-10-21T15:28:34.243Z,2.95
2023-10-21T15:31:02.226Z,3.08
2023-10-21T15:33:30.226Z,2.80
2023-10-21T15:35:58.200Z,2.20
2023-10-21T15:38:26.156Z,2.35
2023-10-21T15:40:54.109Z,1.90
2023-10-21T15:43:23.524Z,2.40
2023-10-21T15:46:00.041Z,2.40
2023-10-21T15:48:28.174Z,2.08
2023-10-21T15:51:08.347Z,1.88
2023-10-21T15:53:36.347Z,1.63
2023-10-21T15:56:04.406Z,1.90
2023-10-21T15:58:33.773Z,1.52
2023-10-21T16:01:01.766Z,2.08
2023-10-21T16:03:29.959Z,2.03
2023-10-21T16:05:58.711Z,2.10
2023-10-21T16:08:26.725Z,1.88
2023-10-21T16:11:01.900Z,2.20
2023-10-21T16:13:29.893Z,2.80
2023-10-21T16:16:00.667Z,2.80
2023-10-21T16:18:28.973Z,3.15
2023-10-21T16:20:57.023Z,2.53
2023-10-21T16:23:24.998Z,3.78
2023-10-21T16:25:52.950Z,3.63
2023-10-21T16:28:20.949Z,2.75
2023-10-21T16:30:48.980Z,3.22
2023-10-21T16:33:18.472Z,2.92
2023-10-21T16:35:47.126Z,2.67
2023-10-21T16:38:15.933Z,2.65
2023-10-21T16:40:44.350Z,2.63
2023-10-21T16:43:12.660Z,3.00
2023-10-21T16:45:44.127Z,2.40
2023-10-21T16:48:12.293Z,1.85
2023-10-21T16:50:41.837Z,1.70
2023-10-21T16:53:10.657Z,2.08
2023-10-21T16:55:38.799Z,2.05
2023-10-21T16:58:06.764Z,3.15
2023-10-21T17:00:34.767Z,3.15
2023-10-21T17:03:05.631Z,3.70
2023-10-21T17:05:35.658Z,3.50
2023-10-21T17:08:06.072Z,3.28
2023-10-21T17:10:35.237Z,3.70
2023-10-21T17:13:03.253Z,3.15
2023-10-21T17:15:31.728Z,4.45
2023-10-21T17:17:59.986Z,3.55
2023-10-21T17:20:28.799Z,3.17
2023-10-21T17:22:57.297Z,3.65
2023-10-21T17:25:27.879Z,3.47
2023-10-21T17:27:55.911Z,3.80
2023-10-21T17:30:23.920Z,4.05
2023-10-21T17:32:52.526Z,3.17
2023-10-21T17:35:23.159Z,4.55
2023-10-21T17:37:52.260Z,4.97
2023-10-21T17:40:20.266Z,4.38
2023-10-21T17:42:49.704Z,4.20
2023-10-21T17:45:18.320Z,4.03
2023-10-21T17:47:46.335Z,3.47
2023-10-21T17:50:15.037Z,3.47
2023-10-21T17:52:43.058Z,3.60
2023-10-21T17:55:11.015Z,2.95
2023-10-21T17:57:41.009Z,2.63
2023-10-21T18:00:12.247Z,2.30
2023-10-21T18:02:40.464Z,1.58
2023-10-21T18:05:08.985Z,1.48
2023-10-21T18:07:36.922Z,1.40
2023-10-21T18:10:05.639Z,1.08
2023-10-21T18:12:33.794Z,1.77
2023-10-21T18:15:04.203Z,1.27
2023-10-21T18:17:35.239Z,1.60
2023-10-21T18:20:05.170Z,1.30
2023-10-21T18:22:33.476Z,1.55
2023-10-21T18:25:01.479Z,1.50
2023-10-21T18:27:30.701Z,1.13
2023-10-21T18:29:58.790Z,1.23
2023-10-21T18:32:26.759Z,1.05
2023-10-21T18:34:56.112Z,1.27
2023-10-21T18:37:24.048Z,1.15
2023-10-21T18:39:52.045Z,1.50
2023-10-21T18:42:19.997Z,1.27
2023-10-21T18:44:48.015Z,1.42
2023-10-21T18:47:16.016Z,2.05
2023-10-21T18:49:43.991Z,1.42
2023-10-21T18:52:17.428Z,1.30
2023-10-21T18:54:45.638Z,1.55
2023-10-21T18:57:13.719Z,1.58
2023-10-21T18:59:41.920Z,1.30
2023-10-21T19:02:15.978Z,1.50
2023-10-21T19:04:45.639Z,1.83
2023-10-21T19:07:16.089Z,1.65
2023-10-21T19:09:44.483Z,1.40
2023-10-21T19:12:12.546Z,1.55
2023-10-21T19:14:40.607Z,1.40
2023-10-21T19:17:08.618Z,1.48
2023-10-21T19:19:37.214Z,1.63
2023-10-21T19:22:05.524Z,1.40
2023-10-21T19:24:34.986Z,1.05
2023-10-21T19:27:02.994Z,1.40
2023-10-21T19:29:31.626Z,1.50
2023-10-21T19:31:59.781Z,1.60
2023-10-21T19:34:28.758Z,2.03
2023-10-21T19:36:57.173Z,1.30
2023-10-21T19:39:28.074Z,2.03
2023-10-21T19:41:57.637Z,1.85
2023-10-21T19:44:27.027Z,1.60
2023-10-21T19:46:56.207Z,1.75
2023-10-21T19:49:24.915Z,1.85
2023-10-21T19:51:53.072Z,1.20
2023-10-21T19:54:21.083Z,1.70
2023-10-21T19:56:49.080Z,1.60
2023-10-21T19:59:18.431Z,1.10
2023-10-21T20:01:46.468Z,1.40
2023-10-21T20:04:14.800Z,1.95
2023-10-21T20:06:42.885Z,1.63
2023-10-21T20:09:12.205Z,1.60
2023-10-21T20:11:40.374Z,1.65
2023-10-21T20:14:08.459Z,1.52
2023-10-21T20:16:37.811Z,1.25
2023-10-21T20:19:05.851Z,1.23
2023-10-21T20:21:37.027Z,1.75
2023-10-21T20:24:05.728Z,1.27
2023-10-21T20:26:33.860Z,1.85
2023-10-21T20:29:01.850Z,1.40
2023-10-21T20:31:32.796Z,1.23
2023-10-21T20:34:02.657Z,1.15
2023-10-21T20:36:30.841Z,1.35
2023-10-21T20:38:58.860Z,1.38
2023-10-21T20:41:26.824Z,1.00
2023-10-21T20:43:54.794Z,1.52
2023-10-21T20:46:22.922Z,1.60
2023-10-21T20:48:50.966Z,2.22
2023-10-21T20:51:20.429Z,1.67
2023-10-21T20:53:48.422Z,1.40
2023-10-21T20:56:22.169Z,1.27
2023-10-21T21:03:49.745Z,1.45
2023-10-21T21:06:17.825Z,1.02
2023-10-21T21:08:47.183Z,1.30
2023-10-21T21:11:15.259Z,1.88
2023-10-21T21:13:43.666Z,1.38
2023-10-21T21:16:12.128Z,1.30
2023-10-21T21:18:41.328Z,1.60
2023-10-21T21:21:09.561Z,1.20
2023-10-21T21:23:37.504Z,1.13
2023-10-21T21:26:06.877Z,1.60
2023-10-21T21:28:34.940Z,1.30
2023-10-21T21:31:02.961Z,1.20
2023-10-21T21:33:31.121Z,1.92
2023-10-21T21:36:00.220Z,1.85
2023-10-21T21:38:28.703Z,1.50
2023-10-21T21:40:56.674Z,1.65
2023-10-21T21:43:27.950Z,2.10
2023-10-21T21:45:56.785Z,1.30
2023-10-21T21:48:24.936Z,1.83
2023-10-21T21:50:53.054Z,1.13
2023-10-21T21:53:21.005Z,1.00
2023-10-21T21:55:55.373Z,1.80
2023-10-21T21:58:23.420Z,1.20
2023-10-21T22:00:55.123Z,1.20
2023-10-21T22:03:23.615Z,1.00
2023-10-21T22:05:53.805Z,1.10
2023-10-21T22:08:22.225Z,1.83
2023-10-21T22:10:50.659Z,1.42
2023-10-21T22:13:19.221Z,1.33
2023-10-21T22:15:47.525Z,2.72
2023-10-21T22:18:16.990Z,1.30
2023-10-21T22:20:45.222Z,1.10
2023-10-21T22:23:13.298Z,1.20
2023-10-21T22:25:41.391Z,1.45
2023-10-21T22:28:13.093Z,1.48
2023-10-21T22:30:42.365Z,1.45
2023-10-21T22:33:10.483Z,1.20
2023-10-21T22:35:40.404Z,1.65
2023-10-21T22:38:09.070Z,1.08
2023-10-21T22:40:37.096Z,1.70
2023-10-21T22:43:05.084Z,1.15
2023-10-21T22:45:34.230Z,1.10
2023-10-21T22:48:03.147Z,1.30
2023-10-21T22:50:31.326Z,1.83
2023-10-21T22:53:01.367Z,1.02
2023-10-21T22:55:29.329Z,1.45
2023-10-21T22:57:57.727Z,1.17
2023-10-21T23:00:28.278Z,1.20
2023-10-21T23:02:59.935Z,1.30
2023-10-21T23:05:28.447Z,1.33
2023-10-21T23:07:58.847Z,1.75
2023-10-21T23:10:29.761Z,1.15
2023-10-21T23:12:57.942Z,1.40
2023-10-21T23:15:25.948Z,1.75
2023-10-21T23:17:54.488Z,1.35
2023-10-21T23:20:22.497Z,1.30
2023-10-21T23:22:50.493Z,0.90
2023-10-21T23:25:21.375Z,1.38
2023-10-21T23:27:54.005Z,1.23
2023-10-21T23:30:22.596Z,1.38
2023-10-21T23:32:51.595Z,1.45
2023-10-21T23:35:20.198Z,1.35
2023-10-21T23:37:48.833Z,1.80
2023-10-21T23:40:17.041Z,1.38
2023-10-21T23:42:47.448Z,1.42
2023-10-21T23:45:17.382Z,1.88
2023-10-21T23:47:45.658Z,1.67
2023-10-21T23:50:15.730Z,1.30
2023-10-21T23:52:44.237Z,1.40
2023-10-21T23:55:12.974Z,1.02
2023-10-21T23:57:42.186Z,1.15
